Time;durP1;ratioP1;P1;durP2;ratioP2;P2;SDS_P1;SDS_P2;PMS_P1;PMS_P2;Temp;Humidity;BMP_temperature;BMP_pressure;BME280_temperature;BME280_humidity;BME280_pressure;Samples;Min_cycle;Max_cycle;Signal;HPM_P1;HPM_P2
2022/04/14 00:01:47;;;;;;;0.30;0.30;;;;;;;5.78;67.81;95030.84;5020459;28;20258;-74
2022/04/14 00:04:14;;;;;;;0.57;0.57;;;;;;;5.79;67.82;95029.78;5017122;28;20208;-74
2022/04/14 00:06:42;;;;;;;0.17;0.17;;;;;;;5.89;67.66;95030.47;5020128;28;20305;-74
2022/04/14 00:09:09;;;;;;;0.20;0.20;;;;;;;5.79;68.51;95027.88;5024175;28;20201;-74
2022/04/14 00:11:36;;;;;;;0.20;0.20;;;;;;;5.73;69.00;95031.75;5021319;28;20208;-74
2022/04/14 00:14:03;;;;;;;0.20;0.20;;;;;;;5.53;68.94;95026.59;5016754;28;20685;-73
2022/04/14 00:16:30;;;;;;;0.20;0.20;;;;;;;5.58;68.59;95027.34;5019901;28;20675;-74
2022/04/14 00:18:56;;;;;;;0.35;0.35;;;;;;;5.56;69.47;95029.50;5014340;28;20212;-73
2022/04/14 00:21:23;;;;;;;0.20;0.20;;;;;;;5.45;68.64;95025.34;5019526;28;20232;-73
2022/04/14 00:23:51;;;;;;;0.20;0.20;;;;;;;5.42;69.11;95023.22;5027508;28;20199;-75
2022/04/14 00:26:18;;;;;;;0.10;0.10;;;;;;;5.45;67.72;95019.97;5019350;28;20208;-75
2022/04/14 00:28:46;;;;;;;0.20;0.20;;;;;;;5.38;68.71;95027.53;5023527;28;20208;-74
2022/04/14 00:31:12;;;;;;;0.20;0.20;;;;;;;5.34;69.41;95029.19;5022003;28;20295;-74
2022/04/14 00:33:39;;;;;;;0.30;0.30;;;;;;;5.30;68.56;95031.66;5016286;28;20574;-75
2022/04/14 00:36:06;;;;;;;0.10;0.10;;;;;;;5.31;68.45;95029.78;5018020;28;20271;-75
2022/04/14 00:38:33;;;;;;;0.20;0.20;;;;;;;5.33;67.32;95027.59;5024053;28;20220;-74
2022/04/14 00:41:01;;;;;;;0.30;0.30;;;;;;;5.27;67.69;95028.75;5022727;28;20278;-75
2022/04/14 00:43:32;;;;;;;0.20;0.20;;;;;;;5.35;64.99;95028.09;5017039;28;20204;-75
2022/04/14 00:46:00;;;;;;;0.52;0.50;;;;;;;5.08;67.51;95025.16;5029738;28;20323;-74
2022/04/14 00:48:28;;;;;;;0.20;0.20;;;;;;;5.13;69.77;95035.88;5022697;28;20295;-74
2022/04/14 00:50:55;;;;;;;0.20;0.20;;;;;;;5.17;69.58;95034.22;5023626;28;20211;-74
2022/04/14 00:53:23;;;;;;;0.30;0.30;;;;;;;5.14;67.58;95029.41;5018716;28;20255;-74
2022/04/14 00:55:50;;;;;;;0.30;0.30;;;;;;;5.18;68.41;95025.09;5016539;28;20232;-74
2022/04/14 00:58:18;;;;;;;0.10;0.10;;;;;;;5.18;66.29;95025.09;5021042;28;20648;-74
2022/04/14 01:00:46;;;;;;;0.30;0.30;;;;;;;5.12;67.00;95032.38;5026049;28;20235;-75
2022/04/14 01:03:13;;;;;;;0.10;0.10;;;;;;;4.89;66.54;95033.13;5022780;28;20219;-73
2022/04/14 01:05:40;;;;;;;0.20;0.20;;;;;;;4.68;67.31;95031.69;5017170;28;20197;-75
2022/04/14 01:08:08;;;;;;;0.70;0.70;;;;;;;4.52;68.35;95039.03;5022528;28;20254;-74
2022/04/14 01:10:37;;;;;;;0.20;0.20;;;;;;;4.58;68.62;95032.56;5020129;28;20208;-73
2022/04/14 01:13:04;;;;;;;0.20;0.20;;;;;;;4.59;66.55;95039.53;5023466;28;20205;-74
2022/04/14 01:15:32;;;;;;;0.20;0.20;;;;;;;4.48;67.35;95044.19;5026532;28;20205;-73
2022/04/14 01:17:59;;;;;;;0.25;0.25;;;;;;;4.40;67.15;95046.63;5024212;28;20200;-73
2022/04/14 01:20:26;;;;;;;0.20;0.20;;;;;;;4.28;67.94;95045.09;5019789;28;20235;-74
2022/04/14 01:22:57;;;;;;;0.30;0.30;;;;;;;4.41;69.05;95043.66;5022688;28;20215;-74
2022/04/14 01:25:27;;;;;;;0.28;0.28;;;;;;;4.44;69.01;95053.06;5017060;28;20632;-74
2022/04/14 01:27:54;;;;;;;0.20;0.20;;;;;;;4.48;69.29;95048.75;5022072;28;20561;-74
2022/04/14 01:30:21;;;;;;;1.00;0.90;;;;;;;4.50;69.54;95051.94;5026334;28;20542;-74
2022/04/14 01:32:48;;;;;;;0.40;0.40;;;;;;;4.53;70.33;95054.84;5024193;28;20208;-74
2022/04/14 01:35:15;;;;;;;0.20;0.20;;;;;;;4.70;71.37;95040.25;5018715;28;20204;-74
2022/04/14 01:37:42;;;;;;;0.40;0.40;;;;;;;4.70;70.04;95051.78;5020052;28;20197;-74
2022/04/14 01:40:11;;;;;;;0.20;0.20;;;;;;;4.77;70.43;95040.75;5026581;28;20239;-74
2022/04/14 01:42:40;;;;;;;0.47;0.47;;;;;;;4.75;69.76;95043.72;5025801;28;20212;-73
2022/04/14 01:45:09;;;;;;;0.20;0.20;;;;;;;4.94;69.14;95046.50;5019538;28;20306;-75
2022/04/14 01:47:39;;;;;;;0.20;0.20;;;;;;;4.71;70.63;95039.19;5032008;28;20200;-73
2022/04/14 01:50:08;;;;;;;0.20;0.20;;;;;;;4.75;69.81;95041.03;5012540;28;20656;-73
2022/04/14 01:52:34;;;;;;;0.50;0.50;;;;;;;4.53;70.80;95043.31;5026266;28;20224;-73
2022/04/14 01:55:01;;;;;;;0.28;0.28;;;;;;;4.55;70.85;95055.38;5020145;28;20220;-73
2022/04/14 01:57:28;;;;;;;0.20;0.20;;;;;;;4.55;71.33;95054.56;5019146;28;20204;-73
2022/04/14 01:59:57;;;;;;;0.20;0.20;;;;;;;4.61;72.72;95053.47;5023629;28;20231;-73
2022/04/14 02:02:24;;;;;;;0.40;0.40;;;;;;;4.62;71.50;95060.44;5025527;28;20208;-73
2022/04/14 02:04:51;;;;;;;0.20;0.20;;;;;;;4.67;72.52;95067.63;5020869;28;20204;-73
2022/04/14 02:07:18;;;;;;;0.43;0.43;;;;;;;4.55;70.94;95065.31;5018748;28;20209;-74
2022/04/14 02:09:45;;;;;;;0.20;0.20;;;;;;;4.51;71.20;95062.38;5023007;28;20205;-74
2022/04/14 02:12:12;;;;;;;0.30;0.30;;;;;;;4.42;70.62;95060.56;5024819;28;20208;-74
2022/04/14 02:14:39;;;;;;;0.20;0.20;;;;;;;4.37;70.67;95063.31;5021506;28;20205;-74
2022/04/14 02:17:07;;;;;;;0.20;0.20;;;;;;;4.35;71.62;95062.78;5019094;28;20212;-74
2022/04/14 02:19:34;;;;;;;0.20;0.20;;;;;;;4.39;71.34;95053.06;5032054;28;20746;-74
2022/04/14 02:22:01;;;;;;;0.10;0.10;;;;;;;4.36;70.92;95057.13;5015925;28;20233;-74
2022/04/14 02:24:28;;;;;;;0.20;0.20;;;;;;;4.39;70.67;95055.75;5012750;28;20204;-74
2022/04/14 02:26:55;;;;;;;0.20;0.20;;;;;;;4.35;70.86;95052.03;5025687;28;20656;-74
2022/04/14 02:29:22;;;;;;;0.30;0.30;;;;;;;4.33;70.64;95046.16;5026853;28;20200;-74
2022/04/14 02:31:49;;;;;;;0.20;0.20;;;;;;;4.00;71.00;95048.47;5028857;28;20217;-75
2022/04/14 02:34:17;;;;;;;1.55;0.95;;;;;;;3.87;71.45;95043.72;5024200;28;20204;-74
2022/04/14 02:36:44;;;;;;;0.20;0.20;;;;;;;3.82;71.67;95051.78;5031609;28;20208;-74
2022/04/14 02:39:11;;;;;;;0.20;0.20;;;;;;;3.84;72.17;95046.94;5020430;28;20205;-74
2022/04/14 02:41:38;;;;;;;0.35;0.35;;;;;;;3.82;73.38;95046.44;5024938;28;20287;-74
2022/04/14 02:44:05;;;;;;;8.38;0.85;;;;;;;3.84;73.99;95055.78;5023369;28;20248;-74
2022/04/14 02:46:31;;;;;;;0.28;0.28;;;;;;;3.88;72.43;95045.31;5031635;28;20223;-74
2022/04/14 02:48:58;;;;;;;0.20;0.20;;;;;;;3.90;72.54;95049.31;5020369;28;20209;-74
2022/04/14 02:51:26;;;;;;;0.38;0.38;;;;;;;3.91;73.54;95058.97;5024874;28;20209;-74
2022/04/14 02:53:53;;;;;;;0.20;0.20;;;;;;;3.87;72.78;95062.47;5024056;28;20263;-75
2022/04/14 02:56:20;;;;;;;0.20;0.20;;;;;;;3.86;72.59;95072.38;5012868;28;20197;-74
2022/04/14 02:58:47;;;;;;;0.90;0.90;;;;;;;3.95;74.04;95066.47;5023848;28;20215;-73
2022/04/14 03:01:14;;;;;;;0.20;0.20;;;;;;;4.02;72.49;95067.75;5018066;28;20327;-73
2022/04/14 03:03:41;;;;;;;0.20;0.20;;;;;;;4.04;73.03;95076.34;5019554;28;20659;-74
2022/04/14 03:06:08;;;;;;;0.20;0.20;;;;;;;3.96;71.81;95071.56;5024416;28;20594;-74
2022/04/14 03:08:37;;;;;;;0.30;0.30;;;;;;;3.92;72.49;95070.50;5024781;28;20286;-73
2022/04/14 03:11:03;;;;;;;0.20;0.20;;;;;;;3.77;72.47;95071.34;5017915;28;20209;-73
2022/04/14 03:13:30;;;;;;;0.20;0.20;;;;;;;3.72;72.36;95062.53;5017878;28;20200;-74
2022/04/14 03:15:57;;;;;;;0.20;0.20;;;;;;;3.58;72.94;95073.81;5024434;28;20197;-74
2022/04/14 03:18:24;;;;;;;0.20;0.20;;;;;;;3.52;73.25;95080.28;5025047;28;20212;-74
2022/04/14 03:20:51;;;;;;;0.20;0.20;;;;;;;3.53;72.97;95065.81;5018590;28;20236;-75
2022/04/14 03:23:17;;;;;;;0.10;0.10;;;;;;;3.58;73.82;95062.31;5017599;28;20212;-74
2022/04/14 03:25:46;;;;;;;0.20;0.20;;;;;;;3.65;73.88;95073.53;5023182;28;20205;-73
2022/04/14 03:28:13;;;;;;;0.13;0.13;;;;;;;3.60;73.17;95065.50;5026350;28;20718;-74
2022/04/14 03:30:40;;;;;;;0.20;0.20;;;;;;;3.71;72.77;95074.31;5022735;28;20279;-73
2022/04/14 03:33:07;;;;;;;0.20;0.20;;;;;;;3.65;73.19;95078.09;5024810;28;20211;-74
2022/04/14 03:35:34;;;;;;;0.40;0.40;;;;;;;3.55;73.67;95076.25;5019228;28;20733;-75
2022/04/14 03:38:00;;;;;;;0.20;0.20;;;;;;;3.52;73.87;95074.91;5017626;28;20232;-74
2022/04/14 03:40:27;;;;;;;0.20;0.20;;;;;;;3.48;74.42;95076.53;5021967;28;20255;-75
2022/04/14 03:42:56;;;;;;;0.20;0.20;;;;;;;3.62;75.11;95074.06;5024248;28;20208;-73
2022/04/14 03:45:23;;;;;;;0.20;0.20;;;;;;;3.76;75.13;95082.34;5020031;28;20697;-74
2022/04/14 03:47:50;;;;;;;0.20;0.20;;;;;;;3.88;74.40;95088.19;5028990;28;20207;-75
2022/04/14 03:50:16;;;;;;;0.20;0.20;;;;;;;3.85;73.60;95083.38;5019607;28;20858;-74
2022/04/14 03:52:43;;;;;;;0.10;0.10;;;;;;;3.82;73.14;95089.31;5017105;28;20788;-74
2022/04/14 03:55:10;;;;;;;0.20;0.20;;;;;;;3.84;72.61;95097.84;5022289;28;20201;-74
2022/04/14 03:57:37;;;;;;;0.20;0.20;;;;;;;3.81;72.25;95096.53;5024170;28;20659;-74
2022/04/14 04:00:06;;;;;;;1.65;0.63;;;;;;;4.09;71.92;95087.03;5019869;28;20207;-73
2022/04/14 04:02:36;;;;;;;0.20;0.20;;;;;;;4.77;70.37;95089.84;5016764;28;20507;-74
2022/04/14 04:05:03;;;;;;;0.10;0.10;;;;;;;5.57;68.25;95084.84;5021355;28;20244;-75
2022/04/14 04:07:30;;;;;;;0.20;0.20;;;;;;;5.96;65.84;95084.72;5023959;28;20201;-73
2022/04/14 04:09:57;;;;;;;0.10;0.10;;;;;;;6.83;64.20;95070.91;5021043;28;20204;-74
2022/04/14 04:12:24;;;;;;;1.38;1.25;;;;;;;7.88;61.50;95066.63;5016059;28;20208;-73
2022/04/14 04:14:50;;;;;;;0.47;0.47;;;;;;;8.71;57.57;95059.25;5019959;28;20207;-73
2022/04/14 04:17:19;;;;;;;0.40;0.40;;;;;;;9.73;55.69;95047.50;5023312;28;20668;-74
2022/04/14 04:19:46;;;;;;;0.32;0.32;;;;;;;10.65;53.21;95046.53;5021011;28;20224;-74
2022/04/14 04:22:13;;;;;;;0.20;0.20;;;;;;;11.42;51.18;95052.25;5016568;28;20235;-74
2022/04/14 04:24:40;;;;;;;0.25;0.25;;;;;;;11.30;50.48;95064.56;5027092;28;20205;-73
2022/04/14 04:27:07;;;;;;;0.95;0.93;;;;;;;12.30;50.04;95060.59;5014189;28;20351;-73
2022/04/14 04:29:34;;;;;;;0.20;0.20;;;;;;;12.50;47.72;95059.03;5018280;28;20208;-74
2022/04/14 04:32:00;;;;;;;0.20;0.20;;;;;;;12.88;46.76;95064.38;5023561;28;20201;-74
2022/04/14 04:34:29;;;;;;;0.20;0.20;;;;;;;13.28;45.76;95062.00;5023023;28;20204;-74
2022/04/14 04:36:56;;;;;;;0.20;0.20;;;;;;;14.13;44.16;95054.84;5019143;28;20621;-74
2022/04/14 04:39:22;;;;;;;1.25;0.80;;;;;;;14.28;43.73;95053.41;5021810;28;20201;-74
2022/04/14 04:41:49;;;;;;;0.57;0.57;;;;;;;13.97;43.57;95066.75;5031267;28;20232;-73
2022/04/14 04:44:19;;;;;;;3.10;0.65;;;;;;;14.50;42.51;95073.97;5021588;28;20235;-75
2022/04/14 04:46:46;;;;;;;2.55;1.52;;;;;;;14.75;41.63;95081.03;5026148;28;20220;-72
2022/04/14 04:49:13;;;;;;;1.95;1.33;;;;;;;15.12;40.60;95078.22;5025155;28;20216;-75
2022/04/14 04:51:41;;;;;;;2.95;2.05;;;;;;;15.39;40.13;95093.03;5032649;28;20327;-73
2022/04/14 04:54:08;;;;;;;3.70;1.50;;;;;;;15.22;40.52;95088.66;5033101;28;20200;-73
2022/04/14 04:56:35;;;;;;;5.93;2.35;;;;;;;15.74;39.41;95090.53;5021427;28;20209;-74
2022/04/14 04:59:02;;;;;;;1.92;1.45;;;;;;;15.75;38.88;95089.38;5020562;28;20209;-74
2022/04/14 05:01:29;;;;;;;3.15;1.73;;;;;;;16.54;37.73;95096.53;5025763;28;20700;-74
2022/04/14 05:03:56;;;;;;;4.97;2.03;;;;;;;15.79;39.10;95103.94;5027549;28;20196;-74
2022/04/14 05:06:22;;;;;;;2.65;1.70;;;;;;;16.87;37.61;95100.84;5021270;28;20200;-74
2022/04/14 05:08:51;;;;;;;5.47;2.00;;;;;;;17.53;36.14;95100.75;5030843;28;20200;-75
2022/04/14 05:11:17;;;;;;;2.92;2.08;;;;;;;17.21;36.45;95110.25;5013638;28;20242;-74
2022/04/14 05:13:44;;;;;;;5.60;2.13;;;;;;;17.93;35.44;95092.16;5026555;28;20691;-74
2022/04/14 05:16:11;;;;;;;2.35;1.85;;;;;;;18.39;34.54;95087.53;5021914;28;20206;-74
2022/04/14 05:18:39;;;;;;;2.13;1.67;;;;;;;18.45;34.21;95091.53;5019693;28;20775;-74
2022/04/14 05:21:05;;;;;;;2.72;1.77;;;;;;;18.63;34.32;95088.34;5024354;28;20672;-74
2022/04/14 05:23:32;;;;;;;6.47;1.73;;;;;;;18.26;33.99;95093.56;5013636;28;20287;-74
2022/04/14 05:26:00;;;;;;;2.13;1.48;;;;;;;19.24;32.88;95092.78;5022313;28;20200;-74
2022/04/14 05:28:27;;;;;;;2.95;2.25;;;;;;;18.99;32.71;95084.19;5019897;28;20341;-74
2022/04/14 05:30:54;;;;;;;3.15;2.00;;;;;;;18.88;33.15;95092.25;5032669;28;20213;-74
2022/04/14 05:33:21;;;;;;;3.17;1.92;;;;;;;19.47;31.78;95088.00;5019482;28;20208;-74
2022/04/14 05:35:48;;;;;;;3.80;2.67;;;;;;;18.94;32.51;95085.31;5023815;28;20205;-74
2022/04/14 05:38:16;;;;;;;2.65;2.10;;;;;;;18.90;32.75;95087.19;5021379;28;20228;-76
2022/04/14 05:40:45;;;;;;;3.42;2.55;;;;;;;19.02;32.81;95102.66;5020960;28;20216;-75
2022/04/14 05:43:17;;;;;;;2.33;2.10;;;;;;;18.79;33.18;95098.00;5021917;28;20225;-75
2022/04/14 05:45:47;;;;;;;3.47;1.80;;;;;;;19.56;31.49;95104.22;5016514;28;20233;-76
2022/04/14 05:48:14;;;;;;;6.97;2.47;;;;;;;18.70;32.36;95113.16;5025290;28;20205;-73
2022/04/14 05:50:41;;;;;;;3.53;2.53;;;;;;;19.13;32.34;95104.41;5025081;28;20262;-74
2022/04/14 05:53:08;;;;;;;2.80;2.15;;;;;;;19.18;31.55;95101.34;5018995;28;20208;-75
2022/04/14 05:55:35;;;;;;;2.97;1.83;;;;;;;17.52;33.85;95115.59;5018829;28;20679;-74
2022/04/14 05:58:03;;;;;;;2.55;2.00;;;;;;;17.52;34.70;95121.06;5025234;28;20220;-74
2022/04/14 06:00:31;;;;;;;5.20;1.50;;;;;;;18.75;31.55;95112.84;5024629;28;20220;-76
2022/04/14 06:02:59;;;;;;;1.75;1.25;;;;;;;18.73;31.11;95106.91;5016609;28;20239;-75
2022/04/14 06:05:26;;;;;;;2.05;1.63;;;;;;;19.83;30.26;95103.78;5018969;28;20201;-76
2022/04/14 06:07:54;;;;;;;1.85;1.65;;;;;;;19.02;31.55;95114.44;5022569;28;20192;-76
2022/04/14 06:10:22;;;;;;;3.38;1.13;;;;;;;18.55;31.91;95106.63;5024376;28;20205;-75
2022/04/14 06:12:49;;;;;;;2.60;1.40;;;;;;;19.73;30.35;95114.66;5021517;28;20208;-75
2022/04/14 06:15:16;;;;;;;1.30;1.20;;;;;;;18.21;31.23;95119.31;5023669;28;20684;-76
2022/04/14 06:17:45;;;;;;;3.38;1.48;;;;;;;18.22;31.71;95112.69;5020358;28;20226;-76
2022/04/14 06:20:12;;;;;;;1.63;1.30;;;;;;;17.84;31.98;95120.97;5021439;28;20213;-75
2022/04/14 06:22:40;;;;;;;2.53;1.50;;;;;;;18.73;30.99;95112.41;5018179;28;20232;-76
2022/04/14 06:25:12;;;;;;;1.50;1.40;;;;;;;19.08;30.88;95112.97;5015047;28;20208;-75
2022/04/14 06:27:40;;;;;;;2.08;1.73;;;;;;;17.97;31.61;95120.44;5020801;28;20235;-77
2022/04/14 06:30:08;;;;;;;2.15;1.40;;;;;;;19.05;30.42;95113.72;5018129;28;20270;-73
2022/04/14 06:32:35;;;;;;;1.67;1.20;;;;;;;19.49;28.98;95115.94;5022617;28;20242;-75
2022/04/14 06:35:04;;;;;;;4.15;1.25;;;;;;;18.76;30.24;95112.47;5027817;28;20208;-75
2022/04/14 06:37:31;;;;;;;1.13;1.02;;;;;;;19.09;30.10;95117.31;5022495;28;20209;-76
2022/04/14 06:39:58;;;;;;;0.95;0.82;;;;;;;18.46;30.66;95112.31;5024090;28;20546;-75
2022/04/14 06:42:24;;;;;;;1.80;1.60;;;;;;;18.06;31.05;95122.97;5021432;28;20245;-77
2022/04/14 06:44:53;;;;;;;1.38;1.17;;;;;;;18.83;30.14;95117.28;5026793;28;20286;-73
2022/04/14 06:47:21;;;;;;;1.23;1.02;;;;;;;19.04;30.09;95117.63;5029855;28;20208;-75
2022/04/14 06:49:48;;;;;;;1.38;1.17;;;;;;;21.32;27.38;95109.91;5017602;28;20295;-76
2022/04/14 06:52:17;;;;;;;1.77;1.02;;;;;;;20.85;27.52;95107.97;5018992;28;20209;-78
2022/04/14 06:54:44;;;;;;;1.52;1.17;;;;;;;19.80;28.70;95115.56;5024615;28;20215;-71
2022/04/14 06:57:11;;;;;;;2.15;1.40;;;;;;;18.95;29.76;95124.53;5026505;28;20197;-72
2022/04/14 06:59:38;;;;;;;1.30;1.15;;;;;;;19.35;29.90;95134.94;5017305;28;20204;-75
2022/04/14 07:02:05;;;;;;;1.80;1.30;;;;;;;19.91;29.06;95123.13;5018308;28;20237;-74
2022/04/14 07:04:33;;;;;;;2.05;1.52;;;;;;;18.05;32.06;95133.13;5024512;28;20259;-76
2022/04/14 07:06:59;;;;;;;1.77;1.33;;;;;;;17.45;32.14;95151.06;5022744;28;20282;-74
2022/04/14 07:09:31;;;;;;;1.77;1.33;;;;;;;17.86;31.89;95146.06;5022898;28;20204;-76
2022/04/14 07:11:59;;;;;;;1.48;1.27;;;;;;;19.87;29.23;95137.63;5017524;28;20197;-75
2022/04/14 07:14:27;;;;;;;3.10;1.50;;;;;;;20.36;28.64;95131.16;5024934;28;20297;-76
2022/04/14 07:16:53;;;;;;;1.90;1.17;;;;;;;19.66;29.80;95134.63;5015403;28;20560;-74
2022/04/14 07:19:20;;;;;;;4.40;1.35;;;;;;;20.14;28.64;95135.59;5019705;28;20205;-72
2022/04/14 07:21:47;;;;;;;1.60;1.42;;;;;;;19.24;30.07;95136.75;5011967;28;20208;-75
2022/04/14 07:24:14;;;;;;;3.58;1.80;;;;;;;19.02;30.32;95138.34;5016672;28;20210;-76
2022/04/14 07:26:42;;;;;;;4.15;1.77;;;;;;;17.58;32.36;95146.25;5028731;28;20216;-73
2022/04/14 07:29:09;;;;;;;2.08;1.88;;;;;;;18.61;31.43;95131.81;5010052;28;20375;-76
2022/04/14 07:31:36;;;;;;;2.47;1.70;;;;;;;18.68;31.32;95137.44;5012467;28;20208;-76
2022/04/14 07:34:04;;;;;;;3.35;1.88;;;;;;;17.73;32.24;95138.00;5021101;28;20240;-76
2022/04/14 07:36:31;;;;;;;1.67;1.58;;;;;;;15.80;35.30;95135.59;5009852;28;20212;-78
2022/04/14 07:38:58;;;;;;;1.85;1.48;;;;;;;16.07;35.62;95134.78;5010988;28;20209;-77
2022/04/14 07:41:26;;;;;;;2.13;1.52;;;;;;;18.09;32.56;95124.97;5018626;28;20208;-76
2022/04/14 07:43:56;;;;;;;2.30;1.38;;;;;;;18.70;31.45;95118.66;5018734;28;20228;-76
2022/04/14 07:46:23;;;;;;;2.58;2.08;;;;;;;18.71;32.06;95115.53;5029373;28;20204;-76
2022/04/14 07:48:50;;;;;;;3.53;1.77;;;;;;;18.62;31.96;95105.94;5017951;28;20201;-77
2022/04/14 07:51:16;;;;;;;2.50;1.63;;;;;;;18.45;31.71;95102.50;5022328;28;20232;-74
2022/04/14 07:53:43;;;;;;;2.55;1.75;;;;;;;17.73;33.19;95116.06;5009500;28;20213;-74
2022/04/14 07:56:10;;;;;;;3.05;1.58;;;;;;;17.26;33.64;95115.41;5023041;28;20208;-75
2022/04/14 07:58:38;;;;;;;2.75;1.83;;;;;;;17.46;33.13;95106.09;5021155;28;20204;-75
2022/04/14 08:01:06;;;;;;;3.47;1.98;;;;;;;17.31;33.62;95109.66;5015630;28;20254;-76
2022/04/14 08:03:35;;;;;;;2.55;2.08;;;;;;;17.13;33.97;95113.94;5022382;28;20498;-77
2022/04/14 08:06:02;;;;;;;3.85;2.08;;;;;;;17.65;33.48;95114.31;5014931;28;20208;-76
2022/04/14 08:08:29;;;;;;;1.95;1.52;;;;;;;17.89;32.91;95106.97;5019009;28;20212;-73
2022/04/14 08:11:01;;;;;;;2.60;1.65;;;;;;;18.36;32.19;95110.19;5026611;28;20619;-76
2022/04/14 08:13:30;;;;;;;1.90;1.38;;;;;;;18.14;32.59;95108.25;5014043;28;20671;-75
2022/04/14 08:16:01;;;;;;;1.90;1.30;;;;;;;17.00;33.33;95116.00;5019801;28;20602;-75
2022/04/14 08:18:29;;;;;;;1.85;1.23;;;;;;;16.80;32.78;95117.91;5020775;28;20226;-75
2022/04/14 08:20:59;;;;;;;2.05;1.60;;;;;;;16.57;33.25;95114.97;5025553;28;20207;-78
2022/04/14 08:23:26;;;;;;;1.48;1.10;;;;;;;16.28;33.75;95107.97;5028290;28;20242;-73
2022/04/14 08:25:53;;;;;;;2.22;1.98;;;;;;;16.81;33.56;95114.00;5024326;28;20668;-76
2022/04/14 08:28:20;;;;;;;3.33;1.45;;;;;;;17.47;32.51;95113.16;5027988;28;20200;-75
2022/04/14 08:30:47;;;;;;;2.55;1.65;;;;;;;17.29;33.28;95106.50;5022165;28;20200;-75
2022/04/14 08:33:16;;;;;;;2.15;1.63;;;;;;;16.85;35.01;95109.41;5020535;28;20197;-74
2022/04/14 08:35:44;;;;;;;4.22;2.58;;;;;;;16.23;35.58;95112.94;5024619;28;20668;-74
2022/04/14 08:38:11;;;;;;;1.92;1.33;;;;;;;15.94;35.95;95119.59;5029794;28;20200;-74
2022/04/14 08:40:40;;;;;;;3.80;1.73;;;;;;;16.06;35.34;95113.25;5031965;28;20211;-75
2022/04/14 08:43:08;;;;;;;1.50;1.30;;;;;;;15.28;36.86;95120.84;5020571;28;20235;-75
2022/04/14 08:45:37;;;;;;;2.42;1.67;;;;;;;15.72;35.68;95112.72;5034237;28;20267;-75
2022/04/14 08:48:05;;;;;;;1.77;1.17;;;;;;;15.69;35.46;95112.66;5028665;28;20209;-75
2022/04/14 08:50:33;;;;;;;1.67;1.40;;;;;;;16.13;35.10;95106.03;5024222;28;20220;-75
2022/04/14 08:53:05;;;;;;;2.00;1.63;;;;;;;15.70;35.49;95103.31;5019940;28;20375;-77
2022/04/14 08:55:33;;;;;;;3.20;1.60;;;;;;;16.23;35.12;95094.59;5021472;28;20201;-74
2022/04/14 08:58:01;;;;;;;1.30;0.93;;;;;;;15.97;35.18;95106.03;5026662;28;20201;-77
2022/04/14 09:00:28;;;;;;;2.13;1.33;;;;;;;15.78;35.43;95103.16;5026579;28;20200;-77
2022/04/14 09:02:57;;;;;;;2.80;1.70;;;;;;;15.58;35.27;95102.19;5019569;28;20236;-74
2022/04/14 09:05:24;;;;;;;1.88;1.15;;;;;;;15.63;35.93;95091.03;5019712;28;20699;-73
2022/04/14 09:07:52;;;;;;;1.27;1.17;;;;;;;15.79;35.45;95087.56;5026407;28;20292;-76
2022/04/14 09:10:21;;;;;;;1.90;1.38;;;;;;;15.83;35.34;95085.72;5026641;28;20563;-73
2022/04/14 09:12:49;;;;;;;1.65;1.25;;;;;;;15.88;34.41;95082.72;5020630;28;20582;-76
2022/04/14 09:15:16;;;;;;;1.27;1.17;;;;;;;16.31;33.05;95074.47;5018764;28;20292;-76
2022/04/14 09:17:43;;;;;;;1.20;1.08;;;;;;;16.62;33.59;95079.19;5023859;28;20240;-79
2022/04/14 09:20:36;;;;;;;0.90;0.65;;;;;;;15.92;34.03;95075.41;5025628;28;20222;-75
2022/04/14 09:23:23;;;;;;;1.63;1.23;;;;;;;15.71;34.87;95069.41;5024652;28;20573;-75
2022/04/14 09:25:53;;;;;;;0.80;0.80;;;;;;;16.13;34.65;95075.97;5025648;28;20201;-77
2022/04/14 09:28:21;;;;;;;1.70;1.27;;;;;;;16.87;33.08;95077.00;5014052;28;20197;-74
2022/04/14 09:31:02;;;;;;;6.53;2.80;;;;;;;17.46;32.50;95066.94;5023933;28;20297;-75
2022/04/14 09:33:30;;;;;;;1.48;1.33;;;;;;;17.48;32.65;95067.38;5026350;28;20219;-74
2022/04/14 09:36:12;;;;;;;1.17;1.08;;;;;;;16.87;32.25;95063.34;5022519;28;20540;-76
2022/04/14 09:38:58;;;;;;;0.88;0.70;;;;;;;16.57;30.77;95070.41;5019611;28;20667;-74
2022/04/14 09:41:34;;;;;;;1.48;0.88;;;;;;;16.57;30.32;95067.66;5028079;28;20258;-77
2022/04/14 09:44:06;;;;;;;0.65;0.65;;;;;;;16.76;31.02;95066.97;5023086;28;20252;-76
2022/04/14 09:46:34;;;;;;;1.55;1.20;;;;;;;16.74;31.46;95061.84;5032563;28;20196;-77
2022/04/14 09:49:09;;;;;;;0.70;0.70;;;;;;;17.48;30.86;95064.63;5020936;28;20231;-74
2022/04/14 09:51:37;;;;;;;1.50;0.90;;;;;;;17.70;29.72;95048.28;5025733;28;20251;-75
2022/04/14 09:54:14;;;;;;;0.70;0.70;;;;;;;16.75;30.50;95055.25;5026024;28;20673;-79
2022/04/14 09:56:45;;;;;;;0.80;0.80;;;;;;;16.36;30.61;95059.75;5020618;28;20195;-75
2022/04/14 09:59:13;;;;;;;1.30;0.88;;;;;;;16.96;30.66;95044.75;5019678;28;20200;-75
2022/04/14 10:01:41;;;;;;;0.82;0.80;;;;;;;16.98;29.39;95047.94;5025280;28;20201;-72
2022/04/14 10:04:10;;;;;;;1.10;0.88;;;;;;;16.95;29.63;95043.16;5026412;28;20232;-77
2022/04/14 10:06:37;;;;;;;1.48;0.82;;;;;;;17.64;28.84;95035.22;5021764;28;20610;-74
2022/04/14 10:09:04;;;;;;;1.35;0.90;;;;;;;18.19;28.71;95022.91;5015669;28;21044;-75
2022/04/14 10:11:34;;;;;;;1.65;1.20;;;;;;;18.30;28.88;95029.38;5022058;28;20196;-74
2022/04/14 10:14:14;;;;;;;0.70;0.70;;;;;;;18.60;27.92;95014.97;5019499;28;20204;-74
2022/04/14 10:16:41;;;;;;;1.75;0.93;;;;;;;18.72;28.62;95023.00;5019595;28;20220;-75
2022/04/14 10:19:09;;;;;;;1.20;0.95;;;;;;;19.08;28.18;95014.09;5025619;28;20216;-74
2022/04/14 10:21:37;;;;;;;1.80;1.20;;;;;;;18.98;28.47;95016.72;5024060;28;20224;-75
2022/04/14 10:24:05;;;;;;;0.80;0.80;;;;;;;18.78;28.45;95024.25;5012616;28;20330;-77
2022/04/14 10:26:34;;;;;;;0.65;0.65;;;;;;;19.06;28.89;95015.63;5024991;28;20212;-76
2022/04/14 10:29:03;;;;;;;1.80;1.15;;;;;;;19.30;27.78;95014.38;5031881;28;20212;-77
2022/04/14 10:31:32;;;;;;;0.73;0.70;;;;;;;19.36;28.40;95013.69;5017734;28;20201;-74
2022/04/14 10:34:04;;;;;;;1.00;0.90;;;;;;;19.58;28.58;95014.75;5023415;28;20778;-74
2022/04/14 10:36:33;;;;;;;0.93;0.88;;;;;;;18.98;27.86;95014.75;5025385;28;20632;-79
2022/04/14 10:39:00;;;;;;;1.00;0.90;;;;;;;18.57;28.24;95018.44;5020282;28;20258;-76
2022/04/14 10:41:31;;;;;;;0.88;0.60;;;;;;;18.40;29.27;95012.31;5026226;28;20199;-76
2022/04/14 10:44:01;;;;;;;1.70;1.08;;;;;;;18.63;28.19;95016.97;5021669;28;20251;-77
2022/04/14 10:46:38;;;;;;;1.08;0.82;;;;;;;18.83;30.21;95012.97;5031060;28;20204;-79
2022/04/14 10:49:12;;;;;;;1.48;1.15;;;;;;;19.46;28.45;95013.00;5018866;28;20215;-75
2022/04/14 10:51:39;;;;;;;2.65;1.00;;;;;;;19.76;27.55;95004.75;5018140;28;20290;-76
2022/04/14 10:54:19;;;;;;;1.23;0.80;;;;;;;18.94;28.20;95013.91;5088306;27;20563;-78
2022/04/14 10:56:52;;;;;;;1.48;1.13;;;;;;;18.68;27.98;95011.97;5087946;28;20198;-75
2022/04/14 10:59:42;;;;;;;0.85;0.60;;;;;;;18.39;27.98;95018.16;5084955;28;20207;-74
2022/04/14 11:02:09;;;;;;;0.60;0.60;;;;;;;18.16;29.63;95007.22;5067234;28;20207;-75
2022/04/14 11:04:48;;;;;;;1.02;0.80;;;;;;;18.38;29.16;95003.66;5088435;28;20557;-77
2022/04/14 11:07:16;;;;;;;1.45;0.75;;;;;;;19.08;28.79;95003.13;5087585;28;20198;-75
2022/04/14 11:09:49;;;;;;;0.88;0.60;;;;;;;19.05;28.63;95003.06;5087851;28;20653;-75
2022/04/14 11:12:19;;;;;;;1.15;0.80;;;;;;;18.84;27.92;95002.78;5087884;28;20272;-73
2022/04/14 11:14:48;;;;;;;1.52;1.08;;;;;;;19.08;30.63;94999.59;5087448;28;20198;-75
2022/04/14 11:17:53;;;;;;;1.52;1.10;;;;;;;19.66;28.10;94994.44;5087051;28;20237;-75
2022/04/14 11:20:22;;;;;;;0.93;0.80;;;;;;;19.76;27.90;94984.72;5056651;28;20249;-75
2022/04/14 11:23:09;;;;;;;1.00;0.90;;;;;;;20.28;28.25;94991.06;5072423;28;20290;-76
2022/04/14 11:25:47;;;;;;;1.02;0.90;;;;;;;19.84;26.73;94978.88;5078936;28;20241;-73
2022/04/14 11:28:20;;;;;;;2.50;1.10;;;;;;;19.88;27.19;94984.44;5066394;28;20202;-74
2022/04/14 11:30:48;;;;;;;1.10;1.00;;;;;;;19.28;27.21;94989.22;5067841;28;20200;-74
2022/04/14 11:33:16;;;;;;;0.88;0.80;;;;;;;18.79;28.39;94984.69;5067243;28;20305;-73
2022/04/14 11:35:46;;;;;;;1.02;0.93;;;;;;;18.90;28.99;94993.84;5066761;28;20752;-77
2022/04/14 11:38:46;;;;;;;1.13;1.02;;;;;;;18.76;28.82;94994.44;5067061;28;20191;-76
2022/04/14 11:44:11;;;;;;;1.27;1.17;;;;;;;18.48;29.55;94992.03;5088315;27;20565;-77
2022/04/14 11:46:40;;;;;;;1.80;1.20;;;;;;;19.01;28.75;94981.03;5068409;28;20618;-77